Terminal Aerodrome Forecast
Issued by NWS Quad Cities IA IL

Home | Current Version | Previous Version | Text Only | Print | Product List | Glossary On
Versions: 1 2 3 4 5 6 7 8 9 10 11 12 13 14 15 16 17 18 19 20
000
FTUS43 KDVN 151100 RRA
TAFDBQ
TAF
KDBQ 151141Z 1512/1612 32011KT P6SM SCT050
     FM152000 27005KT P6SM SKC
     FM160300 14012KT P6SM BKN120=

USA.gov is the U.S. government's official web portal to all federal, state and local government web resources and services.